createdAt,value
2023-05-21T00:01:50.053Z,15.50
2023-05-21T00:04:18.353Z,15.50
2023-05-21T00:06:46.554Z,15.50
2023-05-21T00:09:14.761Z,15.40
2023-05-21T00:11:44.388Z,15.40
2023-05-21T00:14:12.672Z,15.40
2023-05-21T00:16:41.025Z,15.40
2023-05-21T00:19:12.060Z,15.40
2023-05-21T00:21:41.177Z,15.40
2023-05-21T00:24:09.627Z,15.30
2023-05-21T00:26:37.863Z,15.20
2023-05-21T00:29:07.662Z,15.20
2023-05-21T00:31:36.059Z,15.10
2023-05-21T00:34:04.319Z,15.10
2023-05-21T00:36:34.858Z,15.10
2023-05-21T00:39:04.412Z,15.00
2023-05-21T00:41:32.737Z,15.00
2023-05-21T00:44:01.039Z,14.90
2023-05-21T00:46:30.730Z,14.90
2023-05-21T00:48:59.917Z,14.80
2023-05-21T00:51:30.441Z,14.80
2023-05-21T00:53:59.660Z,14.70
2023-05-21T00:56:29.063Z,14.70
2023-05-21T00:58:58.457Z,14.70
2023-05-21T01:01:26.920Z,14.70
2023-05-21T01:03:57.931Z,14.70
2023-05-21T01:06:26.792Z,14.60
2023-05-21T01:08:56.250Z,14.60
2023-05-21T01:11:29.499Z,14.50
2023-05-21T01:13:58.991Z,14.50
2023-05-21T01:16:27.285Z,14.50
2023-05-21T01:18:58.128Z,14.40
2023-05-21T01:21:30.562Z,14.40
2023-05-21T01:24:02.328Z,14.30
2023-05-21T01:26:30.540Z,14.30
2023-05-21T01:28:59.030Z,14.30
2023-05-21T01:31:33.565Z,14.30
2023-05-21T01:34:08.345Z,14.20
2023-05-21T01:36:42.908Z,14.20
2023-05-21T01:39:18.495Z,14.20
2023-05-21T01:41:50.896Z,14.20
2023-05-21T01:44:21.101Z,14.20
2023-05-21T01:46:50.074Z,14.20
2023-05-21T01:49:20.168Z,14.20
2023-05-21T01:51:49.357Z,14.10
2023-05-21T01:54:19.068Z,14.10
2023-05-21T01:56:47.957Z,14.00
2023-05-21T01:59:17.325Z,14.00
2023-05-21T02:01:45.687Z,13.90
2023-05-21T02:04:14.023Z,13.90
2023-05-21T02:06:42.777Z,13.90
2023-05-21T02:09:11.165Z,13.90
2023-05-21T02:11:40.887Z,13.90
2023-05-21T02:14:10.510Z,13.80
2023-05-21T02:16:39.198Z,13.80
2023-05-21T02:19:07.653Z,13.70
2023-05-21T02:21:35.910Z,13.70
2023-05-21T02:24:04.168Z,13.70
2023-05-21T02:26:32.542Z,13.70
2023-05-21T02:29:02.312Z,13.60
2023-05-21T02:31:30.659Z,13.60
2023-05-21T02:33:58.856Z,13.60
2023-05-21T02:36:28.902Z,13.60
2023-05-21T02:38:57.886Z,13.60
2023-05-21T02:41:28.652Z,13.50
2023-05-21T02:43:56.939Z,13.50
2023-05-21T02:46:26.639Z,13.50
2023-05-21T02:48:54.848Z,13.50
2023-05-21T02:51:23.273Z,13.50
2023-05-21T02:53:51.734Z,13.50
2023-05-21T02:56:20.086Z,13.40
2023-05-21T02:58:48.844Z,13.40
2023-05-21T03:01:17.204Z,13.40
2023-05-21T03:03:46.859Z,13.30
2023-05-21T03:06:16.407Z,13.30
2023-05-21T03:08:44.567Z,13.30
2023-05-21T03:11:12.770Z,13.30
2023-05-21T03:13:42.873Z,13.30
2023-05-21T03:16:11.267Z,13.30
2023-05-21T03:18:39.593Z,13.30
2023-05-21T03:21:09.336Z,13.20
2023-05-21T03:23:37.684Z,13.30
2023-05-21T03:26:08.425Z,13.30
2023-05-21T03:28:36.952Z,13.30
2023-05-21T03:31:05.874Z,13.30
2023-05-21T03:34:03.559Z,13.30
2023-05-21T03:36:34.617Z,13.30
2023-05-21T03:39:04.619Z,13.30
2023-05-21T03:41:35.067Z,13.30
2023-05-21T03:44:18.153Z,13.30
2023-05-21T03:46:52.148Z,13.30
2023-05-21T03:49:29.372Z,13.40
2023-05-21T03:52:00.372Z,13.50
2023-05-21T03:54:29.403Z,13.60
2023-05-21T03:57:02.575Z,13.60
2023-05-21T03:59:30.906Z,13.60
2023-05-21T04:02:00.265Z,13.70
2023-05-21T04:04:29.506Z,13.80
2023-05-21T04:06:59.686Z,13.80
2023-05-21T04:09:28.773Z,13.90
2023-05-21T04:11:57.094Z,13.90
2023-05-21T04:14:28.284Z,14.00
2023-05-21T04:16:56.827Z,14.10
2023-05-21T04:19:25.270Z,14.20
2023-05-21T04:21:53.913Z,14.20
2023-05-21T04:24:23.515Z,14.30
2023-05-21T04:27:12.102Z,14.30
2023-05-21T04:29:42.897Z,14.40
2023-05-21T04:32:13.978Z,14.50
2023-05-21T04:34:43.110Z,14.50
2023-05-21T04:37:12.188Z,14.60
2023-05-21T04:39:45.021Z,14.70
2023-05-21T04:42:13.455Z,14.80
2023-05-21T04:44:44.634Z,14.90
2023-05-21T04:47:15.046Z,15.00
2023-05-21T04:49:43.617Z,15.10
2023-05-21T04:52:12.541Z,15.10
2023-05-21T04:54:42.125Z,15.20
2023-05-21T04:57:11.759Z,15.40
2023-05-21T04:59:40.190Z,15.60
2023-05-21T05:02:11.368Z,15.80
2023-05-21T05:04:39.759Z,16.20
2023-05-21T05:07:10.522Z,16.60
2023-05-21T05:09:38.900Z,17.00
2023-05-21T05:12:07.895Z,17.60
2023-05-21T05:14:37.642Z,18.20
2023-05-21T05:17:10.046Z,18.80
2023-05-21T05:19:38.339Z,19.50
2023-05-21T05:22:06.866Z,20.20
2023-05-21T05:24:37.467Z,20.90
2023-05-21T05:27:06.124Z,21.70
2023-05-21T05:29:38.189Z,22.40
2023-05-21T05:32:07.437Z,23.20
2023-05-21T05:34:35.777Z,24.10
2023-05-21T05:37:04.370Z,24.90
2023-05-21T05:39:35.282Z,25.70
2023-05-21T05:42:03.896Z,26.40
2023-05-21T05:44:32.630Z,27.10
2023-05-21T05:47:02.655Z,27.80
2023-05-21T05:49:31.136Z,28.40
2023-05-21T05:51:59.420Z,29.00
2023-05-21T05:54:30.057Z,29.80
2023-05-21T05:56:58.707Z,30.40
2023-05-21T05:59:28.301Z,30.90
2023-05-21T06:02:02.255Z,31.40
2023-05-21T06:04:33.055Z,31.90
2023-05-21T06:07:01.405Z,32.60
2023-05-21T06:09:29.702Z,32.90
2023-05-21T06:11:58.290Z,33.30
2023-05-21T06:14:26.665Z,33.60
2023-05-21T06:16:55.003Z,33.90
2023-05-21T06:19:24.678Z,34.20
2023-05-21T06:21:53.348Z,34.60
2023-05-21T06:24:21.934Z,35.00
2023-05-21T06:26:50.138Z,35.40
2023-05-21T06:29:18.562Z,35.70
2023-05-21T06:31:48.716Z,36.00
2023-05-21T06:34:16.961Z,36.20
2023-05-21T06:36:47.592Z,36.60
2023-05-21T06:39:16.419Z,36.80
2023-05-21T06:41:44.824Z,37.00
2023-05-21T06:44:39.197Z,37.30
2023-05-21T06:47:27.066Z,37.50
2023-05-21T06:49:55.979Z,37.60
2023-05-21T06:52:26.839Z,37.90
2023-05-21T06:54:55.760Z,38.40
2023-05-21T06:57:26.542Z,38.80
2023-05-21T06:59:54.965Z,39.20
2023-05-21T07:02:23.573Z,39.30
2023-05-21T07:04:52.072Z,39.30
2023-05-21T07:07:21.517Z,39.50
2023-05-21T07:09:51.213Z,39.80
2023-05-21T07:12:19.549Z,40.00
2023-05-21T07:14:49.255Z,40.10
2023-05-21T07:17:17.565Z,40.20
2023-05-21T07:19:45.948Z,40.40
2023-05-21T07:22:14.626Z,40.40
2023-05-21T07:24:43.376Z,40.60
2023-05-21T07:27:24.861Z,40.60
2023-05-21T07:29:55.953Z,40.80
2023-05-21T07:32:24.477Z,40.90
2023-05-21T07:34:55.680Z,40.80
2023-05-21T07:37:27.881Z,41.00
2023-05-21T07:39:58.155Z,41.00
2023-05-21T07:42:28.191Z,41.00
2023-05-21T07:44:58.154Z,41.00
2023-05-21T07:47:29.481Z,41.00
2023-05-21T07:49:58.879Z,41.20
2023-05-21T07:52:27.375Z,41.50
2023-05-21T07:54:55.956Z,41.50
2023-05-21T07:57:25.107Z,41.80
2023-05-21T08:00:00.619Z,41.90
2023-05-21T08:02:31.181Z,42.00
2023-05-21T08:05:01.655Z,42.10
2023-05-21T08:07:29.969Z,42.20
2023-05-21T08:09:58.274Z,42.40
2023-05-21T08:12:28.967Z,42.50
2023-05-21T08:15:00.260Z,42.60
2023-05-21T08:17:29.487Z,42.90
2023-05-21T08:19:57.789Z,43.10
2023-05-21T08:22:26.145Z,43.10
2023-05-21T08:24:54.423Z,43.00
2023-05-21T08:27:22.853Z,42.90
2023-05-21T08:29:53.547Z,43.10
2023-05-21T08:32:23.400Z,43.30
2023-05-21T08:34:53.213Z,43.50
2023-05-21T08:37:36.034Z,43.30
2023-05-21T08:40:15.154Z,43.40
2023-05-21T08:42:47.182Z,43.30
2023-05-21T08:45:24.123Z,43.00
2023-05-21T08:47:57.809Z,43.00
2023-05-21T08:50:29.195Z,43.20
2023-05-21T08:53:04.049Z,43.10
2023-05-21T08:55:39.033Z,42.70
2023-05-21T08:58:07.725Z,42.20
2023-05-21T09:00:36.079Z,41.90
2023-05-21T09:03:10.446Z,41.70
2023-05-21T09:05:41.662Z,41.30
2023-05-21T09:08:17.309Z,41.20
2023-05-21T09:10:55.690Z,41.60
2023-05-21T09:13:53.780Z,41.80
2023-05-21T09:16:31.711Z,42.20
2023-05-21T09:19:04.627Z,42.60
2023-05-21T09:21:36.881Z,42.70
2023-05-21T09:24:11.975Z,42.30
2023-05-21T09:26:44.375Z,41.80
2023-05-21T09:29:14.769Z,41.80
2023-05-21T09:31:46.077Z,41.70
2023-05-21T09:34:16.700Z,41.40
2023-05-21T09:36:47.244Z,41.40
2023-05-21T09:39:29.103Z,41.60
2023-05-21T09:42:02.460Z,41.60
2023-05-21T09:44:31.524Z,41.30
2023-05-21T09:47:03.792Z,41.30
2023-05-21T09:49:33.577Z,41.80
2023-05-21T09:52:02.079Z,41.90
2023-05-21T09:54:33.662Z,41.50
2023-05-21T09:57:02.662Z,41.30
2023-05-21T09:59:37.774Z,41.40
2023-05-21T10:02:17.939Z,41.30
2023-05-21T10:04:50.834Z,41.20
2023-05-21T10:07:21.887Z,41.30
2023-05-21T10:09:51.034Z,41.40
2023-05-21T10:12:20.407Z,41.50
2023-05-21T10:14:55.187Z,41.60
2023-05-21T10:17:27.989Z,41.60
2023-05-21T10:19:58.306Z,41.60
2023-05-21T10:22:26.802Z,41.20
2023-05-21T10:24:55.979Z,40.80
2023-05-21T10:27:24.533Z,40.90
2023-05-21T10:29:55.523Z,40.50
2023-05-21T10:32:25.229Z,40.20
2023-05-21T10:34:55.234Z,39.90
2023-05-21T10:37:27.682Z,39.80
2023-05-21T10:39:56.650Z,39.90
2023-05-21T10:42:48.403Z,39.80
2023-05-21T10:45:24.827Z,39.60
2023-05-21T10:48:09.970Z,39.40
2023-05-21T10:50:53.222Z,39.00
2023-05-21T10:53:35.318Z,38.60
2023-05-21T10:56:15.598Z,38.00
2023-05-21T10:59:07.920Z,37.50
2023-05-21T11:01:38.996Z,37.00
2023-05-21T11:04:07.658Z,36.70
2023-05-21T11:06:35.932Z,36.40
2023-05-21T11:09:14.674Z,35.70
2023-05-21T11:11:45.206Z,35.30
2023-05-21T11:14:35.460Z,35.20
2023-05-21T11:17:11.192Z,34.80
2023-05-21T11:19:43.427Z,34.40
2023-05-21T11:22:22.662Z,34.00
2023-05-21T11:24:53.363Z,33.60
2023-05-21T11:27:33.486Z,33.50
2023-05-21T11:30:04.503Z,33.50
2023-05-21T11:32:32.872Z,33.40
2023-05-21T11:35:02.415Z,33.40
2023-05-21T11:37:33.313Z,33.10
2023-05-21T11:40:34.524Z,32.90
2023-05-21T11:43:04.561Z,32.80
2023-05-21T11:45:34.459Z,32.60
2023-05-21T11:48:06.133Z,32.40
2023-05-21T11:50:35.818Z,32.20
2023-05-21T11:53:04.376Z,31.90
2023-05-21T11:55:33.280Z,31.80
2023-05-21T11:58:03.270Z,31.80
2023-05-21T12:00:31.884Z,31.50
2023-05-21T12:03:00.158Z,31.30
2023-05-21T12:05:28.452Z,31.10
2023-05-21T12:07:59.312Z,31.00
2023-05-21T12:10:27.546Z,30.90
2023-05-21T12:12:57.367Z,30.80
2023-05-21T12:15:28.212Z,30.50
2023-05-21T12:17:58.059Z,30.50
2023-05-21T12:20:29.047Z,30.40
2023-05-21T12:23:00.054Z,30.30
2023-05-21T12:25:29.985Z,30.10
2023-05-21T12:28:02.034Z,29.90
2023-05-21T12:30:31.764Z,29.80
2023-05-21T12:33:02.462Z,29.80
2023-05-21T12:35:32.684Z,29.70
2023-05-21T12:38:03.321Z,29.60
2023-05-21T12:40:39.038Z,29.50
2023-05-21T12:43:08.223Z,29.40
2023-05-21T12:45:40.748Z,29.30
2023-05-21T12:48:09.431Z,29.10
2023-05-21T12:50:41.747Z,29.10
2023-05-21T12:53:11.859Z,29.10
2023-05-21T12:55:40.811Z,29.00
2023-05-21T12:58:09.556Z,28.90
2023-05-21T13:00:39.504Z,28.70
2023-05-21T13:03:08.215Z,28.60
2023-05-21T13:05:36.692Z,28.40
2023-05-21T13:08:05.154Z,28.30
2023-05-21T13:10:33.426Z,28.20
2023-05-21T13:13:02.075Z,28.10
2023-05-21T13:15:30.437Z,28.10
2023-05-21T13:18:01.446Z,28.10
2023-05-21T13:20:32.115Z,28.10
2023-05-21T13:23:00.880Z,28.00
2023-05-21T13:25:30.453Z,27.80
2023-05-21T13:27:59.339Z,27.70
2023-05-21T13:30:27.589Z,27.50
2023-05-21T13:32:56.270Z,27.40
2023-05-21T13:35:26.460Z,27.40
2023-05-21T13:37:57.688Z,27.40
2023-05-21T13:40:25.948Z,27.40
2023-05-21T13:42:56.692Z,27.20
2023-05-21T13:45:29.257Z,27.10
2023-05-21T13:47:58.034Z,27.00
2023-05-21T13:50:27.883Z,26.90
2023-05-21T13:52:56.192Z,26.90
2023-05-21T13:55:26.555Z,26.90
2023-05-21T13:57:54.830Z,26.90
2023-05-21T14:00:22.969Z,26.90
2023-05-21T14:02:51.433Z,26.80
2023-05-21T14:05:19.954Z,26.70
2023-05-21T14:07:49.542Z,26.70
2023-05-21T14:10:17.978Z,26.60
2023-05-21T14:12:47.256Z,26.50
2023-05-21T14:15:16.177Z,26.40
2023-05-21T14:17:44.447Z,26.40
2023-05-21T14:20:13.497Z,26.40
2023-05-21T14:22:41.683Z,26.40
2023-05-21T14:25:12.107Z,26.40
2023-05-21T14:27:40.463Z,26.40
2023-05-21T14:30:09.909Z,26.40
2023-05-21T14:32:38.156Z,26.30
2023-05-21T14:35:07.150Z,26.40
2023-05-21T14:37:35.504Z,26.40
2023-05-21T14:40:05.560Z,26.40
2023-05-21T14:42:35.213Z,26.40
2023-05-21T14:45:17.375Z,26.40
2023-05-21T14:47:48.360Z,26.40
2023-05-21T14:50:17.815Z,26.40
2023-05-21T14:52:46.147Z,26.40
2023-05-21T14:55:16.768Z,26.40
2023-05-21T14:57:46.647Z,26.40
2023-05-21T15:00:15.677Z,26.40
2023-05-21T15:02:44.007Z,26.40
2023-05-21T15:05:14.551Z,26.40
2023-05-21T15:07:42.917Z,26.40
2023-05-21T15:10:11.547Z,26.30
2023-05-21T15:12:42.467Z,26.30
2023-05-21T15:15:13.574Z,26.40
2023-05-21T15:17:48.649Z,26.30
2023-05-21T15:20:17.972Z,26.20
2023-05-21T15:22:48.299Z,26.20
2023-05-21T15:25:19.156Z,26.10
2023-05-21T15:27:48.911Z,26.00
2023-05-21T15:30:20.649Z,26.00
2023-05-21T15:32:48.838Z,26.00
2023-05-21T15:35:17.038Z,26.00
2023-05-21T15:37:46.195Z,25.80
2023-05-21T15:40:15.235Z,25.80
2023-05-21T15:42:43.435Z,25.80
2023-05-21T15:45:12.456Z,25.80
2023-05-21T15:47:44.254Z,25.80
2023-05-21T15:50:12.810Z,25.70
2023-05-21T15:52:42.349Z,25.70
2023-05-21T15:55:13.968Z,25.70
2023-05-21T15:57:42.266Z,25.80
2023-05-21T16:00:14.425Z,25.70
2023-05-21T16:02:44.129Z,25.70
2023-05-21T16:05:12.502Z,25.70
2023-05-21T16:07:40.790Z,25.70
2023-05-21T16:10:11.476Z,25.70
2023-05-21T16:12:39.852Z,25.70
2023-05-21T16:15:08.934Z,25.60
2023-05-21T16:17:37.401Z,25.50
2023-05-21T16:20:08.725Z,25.50
2023-05-21T16:22:36.984Z,25.40
2023-05-21T16:25:05.896Z,25.30
2023-05-21T16:27:35.679Z,25.20
2023-05-21T16:30:04.216Z,25.20
2023-05-21T16:32:33.214Z,25.10
2023-05-21T16:35:01.504Z,25.00
2023-05-21T16:37:31.211Z,24.90
2023-05-21T16:39:59.507Z,24.90
2023-05-21T16:42:33.362Z,24.80
2023-05-21T16:45:01.635Z,24.70
2023-05-21T16:47:30.002Z,24.60
2023-05-21T16:49:58.661Z,24.60
2023-05-21T16:52:27.693Z,24.40
2023-05-21T16:54:57.351Z,24.30
2023-05-21T16:57:25.628Z,24.30
2023-05-21T16:59:54.012Z,24.20
2023-05-21T17:02:22.379Z,24.10
2023-05-21T17:04:50.843Z,24.00
2023-05-21T17:07:19.754Z,23.90
2023-05-21T17:09:50.361Z,23.90
2023-05-21T17:12:20.305Z,23.80
2023-05-21T17:14:48.725Z,23.70
2023-05-21T17:17:17.379Z,23.70
2023-05-21T17:19:45.767Z,23.60
2023-05-21T17:22:15.043Z,23.50
2023-05-21T17:24:43.395Z,23.40
2023-05-21T17:27:11.825Z,23.40
2023-05-21T17:29:42.531Z,23.30
2023-05-21T17:32:12.350Z,23.20
2023-05-21T17:34:43.199Z,23.10
2023-05-21T17:37:21.972Z,23.00
2023-05-21T17:40:20.275Z,22.90
2023-05-21T17:42:59.344Z,22.90
2023-05-21T17:45:29.018Z,22.80
2023-05-21T17:48:00.435Z,22.60
2023-05-21T17:50:29.282Z,22.60
2023-05-21T17:52:57.640Z,22.50
2023-05-21T17:55:26.161Z,22.50
2023-05-21T17:57:58.926Z,22.40
2023-05-21T18:00:32.175Z,22.40
2023-05-21T18:03:01.189Z,22.30
2023-05-21T18:06:09.861Z,22.20
2023-05-21T18:08:48.315Z,22.10
2023-05-21T18:11:17.965Z,22.00
2023-05-21T18:13:46.165Z,21.90
2023-05-21T18:16:15.803Z,21.70
2023-05-21T18:18:44.392Z,21.60
2023-05-21T18:21:17.823Z,21.60
2023-05-21T18:23:48.726Z,21.40
2023-05-21T18:26:16.978Z,21.30
2023-05-21T18:28:45.464Z,21.20
2023-05-21T18:31:18.272Z,21.20
2023-05-21T18:33:46.464Z,21.00
2023-05-21T18:36:14.785Z,20.90
2023-05-21T18:38:45.697Z,20.80
2023-05-21T18:41:13.929Z,20.60
2023-05-21T18:43:42.622Z,20.60
2023-05-21T18:46:10.887Z,20.50
2023-05-21T18:48:41.220Z,20.40
2023-05-21T18:51:11.961Z,20.30
2023-05-21T18:53:42.530Z,20.30
2023-05-21T18:56:11.062Z,20.30
2023-05-21T18:58:39.283Z,20.30
2023-05-21T19:01:07.941Z,20.30
2023-05-21T19:03:36.193Z,20.20
2023-05-21T19:06:06.203Z,20.10
2023-05-21T19:08:34.909Z,20.00
2023-05-21T19:11:03.209Z,20.00
2023-05-21T19:13:31.507Z,19.90
2023-05-21T19:15:59.813Z,19.90
2023-05-21T19:18:32.500Z,19.90
2023-05-21T19:21:01.192Z,19.90
2023-05-21T19:23:41.204Z,19.80
2023-05-21T19:26:17.220Z,19.70
2023-05-21T19:28:46.177Z,19.60
2023-05-21T19:31:14.411Z,19.40
2023-05-21T19:33:42.764Z,19.30
2023-05-21T19:36:11.042Z,19.20
2023-05-21T19:38:48.177Z,19.10
2023-05-21T19:41:16.550Z,19.00
2023-05-21T19:43:45.262Z,18.90
2023-05-21T19:46:14.373Z,18.80
2023-05-21T19:48:44.305Z,18.70
2023-05-21T19:51:12.636Z,18.60
2023-05-21T19:53:42.238Z,18.50
2023-05-21T19:56:10.688Z,18.30
2023-05-21T19:58:38.977Z,18.20
2023-05-21T20:01:07.513Z,18.20
2023-05-21T20:03:37.116Z,18.10
2023-05-21T20:06:05.762Z,18.00
2023-05-21T20:08:34.102Z,18.00
2023-05-21T20:11:03.977Z,17.90
2023-05-21T20:13:32.304Z,17.80
2023-05-21T20:16:00.507Z,17.80
2023-05-21T20:18:28.742Z,17.60
2023-05-21T20:20:57.079Z,17.60
2023-05-21T20:23:25.294Z,17.50
2023-05-21T20:25:53.462Z,17.40
2023-05-21T20:28:23.376Z,17.30
2023-05-21T20:30:57.705Z,17.30
2023-05-21T20:33:29.543Z,17.20
2023-05-21T20:35:57.903Z,17.20
2023-05-21T20:38:26.786Z,17.10
2023-05-21T20:40:56.254Z,17.10
2023-05-21T20:43:26.076Z,17.00
2023-05-21T20:45:59.554Z,16.90
2023-05-21T20:48:29.448Z,16.90
2023-05-21T20:50:57.895Z,16.80
2023-05-21T20:53:26.801Z,16.80
2023-05-21T20:55:55.256Z,16.70
2023-05-21T20:58:25.647Z,16.60
2023-05-21T21:00:55.333Z,16.60
2023-05-21T21:03:23.775Z,16.50
2023-05-21T21:05:52.954Z,16.40
2023-05-21T21:08:21.252Z,16.30
2023-05-21T21:10:49.532Z,16.20
2023-05-21T21:13:17.848Z,16.10
2023-05-21T21:15:47.598Z,16.00
2023-05-21T21:18:16.358Z,16.00
2023-05-21T21:20:49.546Z,15.90
2023-05-21T21:23:20.206Z,15.90
2023-05-21T21:25:48.503Z,15.80
2023-05-21T21:28:16.749Z,15.80
2023-05-21T21:30:45.835Z,15.70
2023-05-21T21:33:16.614Z,15.70
2023-05-21T21:35:44.963Z,15.70
2023-05-21T21:38:13.238Z,15.60
2023-05-21T21:40:43.667Z,15.60
2023-05-21T21:43:11.964Z,15.60
2023-05-21T21:45:40.255Z,15.60
2023-05-21T21:48:08.834Z,15.60
2023-05-21T21:50:38.656Z,15.60
2023-05-21T21:53:07.145Z,15.50
2023-05-21T21:55:35.409Z,15.50
2023-05-21T21:58:03.590Z,15.60
2023-05-21T22:00:31.890Z,15.60
2023-05-21T22:03:00.315Z,15.60
2023-05-21T22:05:31.435Z,15.60
2023-05-21T22:08:01.016Z,15.50
2023-05-21T22:10:33.551Z,15.50
2023-05-21T22:13:02.730Z,15.50
2023-05-21T22:15:32.370Z,15.40
2023-05-21T22:18:02.614Z,15.40
2023-05-21T22:20:35.160Z,15.40
2023-05-21T22:23:05.048Z,15.40
2023-05-21T22:25:33.265Z,15.40
2023-05-21T22:28:04.004Z,15.30
2023-05-21T22:30:32.383Z,15.30
2023-05-21T22:33:00.702Z,15.30
2023-05-21T22:35:28.958Z,15.20
2023-05-21T22:37:58.170Z,15.20
2023-05-21T22:40:27.684Z,15.20
2023-05-21T22:42:56.416Z,15.10
2023-05-21T22:45:24.829Z,15.10
2023-05-21T22:47:53.037Z,15.00
2023-05-21T22:50:23.202Z,15.00
2023-05-21T22:52:51.506Z,14.90
2023-05-21T22:55:19.895Z,14.90
2023-05-21T22:57:51.703Z,14.90
2023-05-21T23:00:20.316Z,14.80
2023-05-21T23:02:50.642Z,14.80
2023-05-21T23:05:20.800Z,14.80
2023-05-21T23:07:49.092Z,14.80
2023-05-21T23:10:17.398Z,14.70
2023-05-21T23:12:46.779Z,14.70
2023-05-21T23:15:26.846Z,14.70
2023-05-21T23:17:55.160Z,14.70
2023-05-21T23:20:24.597Z,14.60
2023-05-21T23:22:53.687Z,14.60
2023-05-21T23:25:24.155Z,14.50
2023-05-21T23:27:52.546Z,14.50
2023-05-21T23:30:22.113Z,14.40
2023-05-21T23:32:51.712Z,14.30
2023-05-21T23:35:19.991Z,14.30
2023-05-21T23:37:48.315Z,14.30
2023-05-21T23:40:19.624Z,14.20
2023-05-21T23:42:47.797Z,14.20
2023-05-21T23:45:17.987Z,14.20
2023-05-21T23:47:47.692Z,14.10
2023-05-21T23:50:15.954Z,14.10
2023-05-21T23:52:44.313Z,14.10
2023-05-21T23:55:14.905Z,14.00
2023-05-21T23:57:43.162Z,14.00
